sensor_id;sensor_type;location;lat;lon;timestamp;P1;durP1;ratioP1;P2;durP2;ratioP2
70049;SDS011;57391;51.306;22.680;2022-08-01T00:01:57;6.00;;;2.80;;
70049;SDS011;57391;51.306;22.680;2022-08-01T00:04:24;6.90;;;3.20;;
70049;SDS011;57391;51.306;22.680;2022-08-01T00:06:51;7.60;;;3.20;;
70049;SDS011;57391;51.306;22.680;2022-08-01T00:09:18;6.40;;;2.90;;
70049;SDS011;57391;51.306;22.680;2022-08-01T00:11:45;6.30;;;3.00;;
70049;SDS011;57391;51.306;22.680;2022-08-01T00:14:12;6.10;;;2.60;;
70049;SDS011;57391;51.306;22.680;2022-08-01T00:16:39;7.00;;;3.00;;
70049;SDS011;57391;51.306;22.680;2022-08-01T00:19:06;6.60;;;2.50;;
70049;SDS011;57391;51.306;22.680;2022-08-01T00:21:33;5.00;;;2.60;;
70049;SDS011;57391;51.306;22.680;2022-08-01T00:24:00;7.40;;;2.90;;
70049;SDS011;57391;51.306;22.680;2022-08-01T00:26:28;6.00;;;2.60;;
70049;SDS011;57391;51.306;22.680;2022-08-01T00:28:54;6.30;;;3.10;;
70049;SDS011;57391;51.306;22.680;2022-08-01T00:31:22;6.10;;;3.10;;
70049;SDS011;57391;51.306;22.680;2022-08-01T00:33:49;5.10;;;2.50;;
70049;SDS011;57391;51.306;22.680;2022-08-01T00:36:16;8.20;;;3.20;;
70049;SDS011;57391;51.306;22.680;2022-08-01T00:38:43;5.70;;;3.10;;
70049;SDS011;57391;51.306;22.680;2022-08-01T00:41:10;6.90;;;3.60;;
70049;SDS011;57391;51.306;22.680;2022-08-01T00:43:37;6.90;;;3.50;;
70049;SDS011;57391;51.306;22.680;2022-08-01T00:46:04;6.30;;;3.60;;
70049;SDS011;57391;51.306;22.680;2022-08-01T00:48:31;7.60;;;4.00;;
70049;SDS011;57391;51.306;22.680;2022-08-01T00:50:58;6.60;;;3.70;;
70049;SDS011;57391;51.306;22.680;2022-08-01T00:53:25;7.90;;;4.00;;
70049;SDS011;57391;51.306;22.680;2022-08-01T00:55:53;6.90;;;4.10;;
70049;SDS011;57391;51.306;22.680;2022-08-01T00:58:20;7.20;;;3.80;;
70049;SDS011;57391;51.306;22.680;2022-08-01T01:09:17;7.70;;;4.10;;
70049;SDS011;57391;51.306;22.680;2022-08-01T01:12:30;7.30;;;4.40;;
70049;SDS011;57391;51.306;22.680;2022-08-01T01:15:23;8.80;;;4.40;;
70049;SDS011;57391;51.306;22.680;2022-08-01T01:18:02;9.20;;;4.40;;
70049;SDS011;57391;51.306;22.680;2022-08-01T01:20:37;7.50;;;3.80;;
70049;SDS011;57391;51.306;22.680;2022-08-01T01:23:16;6.00;;;3.40;;
70049;SDS011;57391;51.306;22.680;2022-08-01T01:25:54;7.30;;;3.20;;
70049;SDS011;57391;51.306;22.680;2022-08-01T01:28:35;7.30;;;3.60;;
70049;SDS011;57391;51.306;22.680;2022-08-01T01:36:38;5.20;;;2.50;;
70049;SDS011;57391;51.306;22.680;2022-08-01T01:39:06;5.40;;;2.80;;
70049;SDS011;57391;51.306;22.680;2022-08-01T01:41:36;4.30;;;2.60;;
70049;SDS011;57391;51.306;22.680;2022-08-01T01:44:06;7.80;;;2.70;;
70049;SDS011;57391;51.306;22.680;2022-08-01T01:46:36;17.30;;;3.00;;
70049;SDS011;57391;51.306;22.680;2022-08-01T01:49:05;5.60;;;2.60;;
70049;SDS011;57391;51.306;22.680;2022-08-01T01:51:38;5.30;;;3.00;;
70049;SDS011;57391;51.306;22.680;2022-08-01T01:54:08;6.00;;;2.90;;
70049;SDS011;57391;51.306;22.680;2022-08-01T01:56:36;6.30;;;3.20;;
70049;SDS011;57391;51.306;22.680;2022-08-01T01:59:21;6.50;;;2.60;;
70049;SDS011;57391;51.306;22.680;2022-08-01T02:02:04;5.00;;;2.90;;
70049;SDS011;57391;51.306;22.680;2022-08-01T02:04:35;7.20;;;3.10;;
70049;SDS011;57391;51.306;22.680;2022-08-01T02:07:06;6.40;;;3.10;;
70049;SDS011;57391;51.306;22.680;2022-08-01T02:09:37;6.10;;;2.80;;
70049;SDS011;57391;51.306;22.680;2022-08-01T02:12:10;6.00;;;3.10;;
70049;SDS011;57391;51.306;22.680;2022-08-01T02:14:39;6.10;;;2.30;;
70049;SDS011;57391;51.306;22.680;2022-08-01T02:17:11;5.10;;;2.80;;
70049;SDS011;57391;51.306;22.680;2022-08-01T02:19:39;5.50;;;2.60;;
70049;SDS011;57391;51.306;22.680;2022-08-01T02:22:13;5.70;;;2.70;;
70049;SDS011;57391;51.306;22.680;2022-08-01T02:24:54;5.80;;;2.80;;
70049;SDS011;57391;51.306;22.680;2022-08-01T02:30:31;5.00;;;2.20;;
70049;SDS011;57391;51.306;22.680;2022-08-01T02:33:07;5.10;;;2.20;;
70049;SDS011;57391;51.306;22.680;2022-08-01T02:35:41;4.40;;;2.10;;
70049;SDS011;57391;51.306;22.680;2022-08-01T02:38:11;5.20;;;2.20;;
70049;SDS011;57391;51.306;22.680;2022-08-01T02:40:45;4.00;;;2.30;;
70049;SDS011;57391;51.306;22.680;2022-08-01T02:43:17;3.60;;;2.00;;
70049;SDS011;57391;51.306;22.680;2022-08-01T02:45:51;4.30;;;2.10;;
70049;SDS011;57391;51.306;22.680;2022-08-01T02:48:25;6.10;;;2.30;;
70049;SDS011;57391;51.306;22.680;2022-08-01T02:50:57;4.50;;;2.30;;
70049;SDS011;57391;51.306;22.680;2022-08-01T02:53:27;4.30;;;2.20;;
70049;SDS011;57391;51.306;22.680;2022-08-01T02:55:58;4.60;;;2.40;;
70049;SDS011;57391;51.306;22.680;2022-08-01T02:58:26;4.50;;;2.40;;
70049;SDS011;57391;51.306;22.680;2022-08-01T03:00:54;5.80;;;2.30;;
70049;SDS011;57391;51.306;22.680;2022-08-01T03:03:22;4.10;;;2.30;;
70049;SDS011;57391;51.306;22.680;2022-08-01T03:05:50;4.20;;;2.30;;
70049;SDS011;57391;51.306;22.680;2022-08-01T03:08:18;5.10;;;2.60;;
70049;SDS011;57391;51.306;22.680;2022-08-01T03:10:48;4.20;;;2.40;;
70049;SDS011;57391;51.306;22.680;2022-08-01T03:13:17;7.20;;;2.90;;
70049;SDS011;57391;51.306;22.680;2022-08-01T03:15:46;5.40;;;2.90;;
70049;SDS011;57391;51.306;22.680;2022-08-01T03:18:17;6.70;;;3.10;;
70049;SDS011;57391;51.306;22.680;2022-08-01T03:20:45;9.00;;;3.10;;
70049;SDS011;57391;51.306;22.680;2022-08-01T03:23:15;6.70;;;3.50;;
70049;SDS011;57391;51.306;22.680;2022-08-01T03:25:44;5.70;;;3.60;;
70049;SDS011;57391;51.306;22.680;2022-08-01T03:28:13;6.00;;;3.40;;
70049;SDS011;57391;51.306;22.680;2022-08-01T03:30:43;6.40;;;4.00;;
70049;SDS011;57391;51.306;22.680;2022-08-01T03:33:11;5.90;;;3.30;;
70049;SDS011;57391;51.306;22.680;2022-08-01T03:35:49;5.60;;;3.20;;
70049;SDS011;57391;51.306;22.680;2022-08-01T03:38:23;7.10;;;3.10;;
70049;SDS011;57391;51.306;22.680;2022-08-01T03:40:59;5.10;;;3.10;;
70049;SDS011;57391;51.306;22.680;2022-08-01T03:43:48;4.40;;;2.50;;
70049;SDS011;57391;51.306;22.680;2022-08-01T03:46:33;5.40;;;2.60;;
70049;SDS011;57391;51.306;22.680;2022-08-01T03:49:11;4.90;;;2.50;;
70049;SDS011;57391;51.306;22.680;2022-08-01T03:51:45;4.30;;;2.30;;
70049;SDS011;57391;51.306;22.680;2022-08-01T03:54:20;5.00;;;2.70;;
70049;SDS011;57391;51.306;22.680;2022-08-01T03:56:50;4.70;;;2.60;;
70049;SDS011;57391;51.306;22.680;2022-08-01T03:59:19;4.50;;;2.70;;
70049;SDS011;57391;51.306;22.680;2022-08-01T04:01:48;6.30;;;2.60;;
70049;SDS011;57391;51.306;22.680;2022-08-01T04:04:15;5.00;;;2.80;;
70049;SDS011;57391;51.306;22.680;2022-08-01T04:06:43;5.00;;;2.70;;
70049;SDS011;57391;51.306;22.680;2022-08-01T04:09:11;6.50;;;2.30;;
70049;SDS011;57391;51.306;22.680;2022-08-01T04:11:39;4.80;;;2.40;;
70049;SDS011;57391;51.306;22.680;2022-08-01T04:14:07;4.40;;;2.50;;
70049;SDS011;57391;51.306;22.680;2022-08-01T04:16:35;5.50;;;2.60;;
70049;SDS011;57391;51.306;22.680;2022-08-01T04:19:02;6.30;;;2.30;;
70049;SDS011;57391;51.306;22.680;2022-08-01T04:21:34;5.20;;;2.50;;
70049;SDS011;57391;51.306;22.680;2022-08-01T04:24:10;5.30;;;2.40;;
70049;SDS011;57391;51.306;22.680;2022-08-01T04:26:44;4.20;;;2.50;;
70049;SDS011;57391;51.306;22.680;2022-08-01T04:29:14;4.10;;;2.10;;
70049;SDS011;57391;51.306;22.680;2022-08-01T04:31:46;4.80;;;2.50;;
70049;SDS011;57391;51.306;22.680;2022-08-01T04:34:19;5.30;;;2.70;;
70049;SDS011;57391;51.306;22.680;2022-08-01T04:36:48;5.30;;;2.50;;
70049;SDS011;57391;51.306;22.680;2022-08-01T04:39:18;7.30;;;2.80;;
70049;SDS011;57391;51.306;22.680;2022-08-01T04:41:48;5.10;;;2.90;;
70049;SDS011;57391;51.306;22.680;2022-08-01T04:44:17;6.90;;;3.10;;
70049;SDS011;57391;51.306;22.680;2022-08-01T04:46:45;7.20;;;3.30;;
70049;SDS011;57391;51.306;22.680;2022-08-01T04:49:15;5.80;;;2.80;;
70049;SDS011;57391;51.306;22.680;2022-08-01T04:51:53;6.50;;;3.20;;
70049;SDS011;57391;51.306;22.680;2022-08-01T04:54:27;6.90;;;3.50;;
70049;SDS011;57391;51.306;22.680;2022-08-01T04:56:56;5.40;;;3.40;;
70049;SDS011;57391;51.306;22.680;2022-08-01T04:59:27;7.70;;;3.30;;
70049;SDS011;57391;51.306;22.680;2022-08-01T05:02:17;6.50;;;3.10;;
70049;SDS011;57391;51.306;22.680;2022-08-01T05:04:45;6.30;;;3.40;;
70049;SDS011;57391;51.306;22.680;2022-08-01T05:07:12;5.50;;;3.00;;
70049;SDS011;57391;51.306;22.680;2022-08-01T05:09:40;6.10;;;3.00;;
70049;SDS011;57391;51.306;22.680;2022-08-01T05:12:08;6.00;;;3.30;;
70049;SDS011;57391;51.306;22.680;2022-08-01T05:14:37;5.80;;;3.20;;
70049;SDS011;57391;51.306;22.680;2022-08-01T05:17:07;6.60;;;3.70;;
70049;SDS011;57391;51.306;22.680;2022-08-01T05:19:37;5.20;;;3.30;;
70049;SDS011;57391;51.306;22.680;2022-08-01T05:22:07;5.70;;;3.10;;
70049;SDS011;57391;51.306;22.680;2022-08-01T05:24:36;4.60;;;2.90;;
70049;SDS011;57391;51.306;22.680;2022-08-01T05:27:07;6.40;;;3.40;;
70049;SDS011;57391;51.306;22.680;2022-08-01T05:29:34;6.70;;;3.30;;
70049;SDS011;57391;51.306;22.680;2022-08-01T05:32:02;5.50;;;3.20;;
70049;SDS011;57391;51.306;22.680;2022-08-01T05:34:30;5.00;;;2.90;;
70049;SDS011;57391;51.306;22.680;2022-08-01T05:36:57;6.70;;;2.90;;
70049;SDS011;57391;51.306;22.680;2022-08-01T05:39:24;6.20;;;3.30;;
70049;SDS011;57391;51.306;22.680;2022-08-01T05:41:51;6.30;;;3.10;;
70049;SDS011;57391;51.306;22.680;2022-08-01T05:44:19;7.60;;;3.20;;
70049;SDS011;57391;51.306;22.680;2022-08-01T05:46:46;6.20;;;3.00;;
70049;SDS011;57391;51.306;22.680;2022-08-01T05:49:13;7.00;;;3.20;;
70049;SDS011;57391;51.306;22.680;2022-08-01T05:51:40;4.40;;;2.30;;
70049;SDS011;57391;51.306;22.680;2022-08-01T05:54:07;4.40;;;2.40;;
70049;SDS011;57391;51.306;22.680;2022-08-01T05:56:34;4.50;;;2.30;;
70049;SDS011;57391;51.306;22.680;2022-08-01T05:59:01;6.20;;;2.20;;
70049;SDS011;57391;51.306;22.680;2022-08-01T06:01:28;4.00;;;2.00;;
70049;SDS011;57391;51.306;22.680;2022-08-01T06:03:55;5.50;;;2.20;;
70049;SDS011;57391;51.306;22.680;2022-08-01T06:06:23;4.60;;;2.60;;
70049;SDS011;57391;51.306;22.680;2022-08-01T06:08:50;4.60;;;2.50;;
70049;SDS011;57391;51.306;22.680;2022-08-01T06:11:18;5.30;;;2.50;;
70049;SDS011;57391;51.306;22.680;2022-08-01T06:13:45;5.90;;;2.70;;
70049;SDS011;57391;51.306;22.680;2022-08-01T06:16:12;4.10;;;2.60;;
70049;SDS011;57391;51.306;22.680;2022-08-01T06:18:39;4.70;;;2.60;;
70049;SDS011;57391;51.306;22.680;2022-08-01T06:21:06;6.50;;;2.90;;
70049;SDS011;57391;51.306;22.680;2022-08-01T06:23:34;6.50;;;3.00;;
70049;SDS011;57391;51.306;22.680;2022-08-01T06:26:01;6.20;;;3.50;;
70049;SDS011;57391;51.306;22.680;2022-08-01T06:28:28;7.00;;;4.00;;
70049;SDS011;57391;51.306;22.680;2022-08-01T06:30:56;9.60;;;3.80;;
70049;SDS011;57391;51.306;22.680;2022-08-01T06:33:28;8.20;;;3.80;;
70049;SDS011;57391;51.306;22.680;2022-08-01T06:35:55;7.20;;;4.00;;
70049;SDS011;57391;51.306;22.680;2022-08-01T06:38:22;6.70;;;4.20;;
70049;SDS011;57391;51.306;22.680;2022-08-01T06:40:51;8.10;;;4.50;;
70049;SDS011;57391;51.306;22.680;2022-08-01T06:43:18;7.20;;;4.80;;
70049;SDS011;57391;51.306;22.680;2022-08-01T06:45:46;8.30;;;5.80;;
70049;SDS011;57391;51.306;22.680;2022-08-01T06:48:13;10.90;;;6.50;;
70049;SDS011;57391;51.306;22.680;2022-08-01T06:50:41;11.20;;;7.10;;
70049;SDS011;57391;51.306;22.680;2022-08-01T06:53:08;11.00;;;7.10;;
70049;SDS011;57391;51.306;22.680;2022-08-01T06:55:35;9.90;;;6.60;;
70049;SDS011;57391;51.306;22.680;2022-08-01T06:58:02;10.50;;;6.30;;
70049;SDS011;57391;51.306;22.680;2022-08-01T07:00:30;10.20;;;6.30;;
70049;SDS011;57391;51.306;22.680;2022-08-01T07:02:57;10.80;;;6.60;;
70049;SDS011;57391;51.306;22.680;2022-08-01T07:05:26;9.70;;;6.50;;
70049;SDS011;57391;51.306;22.680;2022-08-01T07:07:57;10.70;;;6.50;;
70049;SDS011;57391;51.306;22.680;2022-08-01T07:10:24;10.90;;;6.10;;
70049;SDS011;57391;51.306;22.680;2022-08-01T07:12:52;9.90;;;6.50;;
70049;SDS011;57391;51.306;22.680;2022-08-01T07:15:19;9.80;;;6.20;;
70049;SDS011;57391;51.306;22.680;2022-08-01T07:17:48;8.60;;;5.60;;
70049;SDS011;57391;51.306;22.680;2022-08-01T07:20:15;8.30;;;5.50;;
70049;SDS011;57391;51.306;22.680;2022-08-01T07:22:42;8.50;;;5.30;;
70049;SDS011;57391;51.306;22.680;2022-08-01T07:25:10;10.20;;;5.10;;
70049;SDS011;57391;51.306;22.680;2022-08-01T07:27:37;8.20;;;4.30;;
70049;SDS011;57391;51.306;22.680;2022-08-01T07:30:07;8.70;;;4.60;;
70049;SDS011;57391;51.306;22.680;2022-08-01T07:32:34;6.80;;;4.60;;
70049;SDS011;57391;51.306;22.680;2022-08-01T07:44:40;7.10;;;4.00;;
70049;SDS011;57391;51.306;22.680;2022-08-01T07:47:07;8.00;;;3.70;;
70049;SDS011;57391;51.306;22.680;2022-08-01T07:49:34;7.30;;;3.70;;
70049;SDS011;57391;51.306;22.680;2022-08-01T07:52:02;7.20;;;3.80;;
70049;SDS011;57391;51.306;22.680;2022-08-01T07:54:31;5.50;;;3.50;;
70049;SDS011;57391;51.306;22.680;2022-08-01T07:56:59;7.00;;;3.50;;
70049;SDS011;57391;51.306;22.680;2022-08-01T07:59:26;6.90;;;3.70;;
70049;SDS011;57391;51.306;22.680;2022-08-01T08:01:53;5.80;;;3.40;;
70049;SDS011;57391;51.306;22.680;2022-08-01T08:04:20;5.10;;;3.10;;
70049;SDS011;57391;51.306;22.680;2022-08-01T08:06:47;5.50;;;3.20;;
70049;SDS011;57391;51.306;22.680;2022-08-01T08:09:15;5.40;;;3.00;;
70049;SDS011;57391;51.306;22.680;2022-08-01T08:11:44;5.40;;;3.10;;
70049;SDS011;57391;51.306;22.680;2022-08-01T08:14:12;8.60;;;3.20;;
70049;SDS011;57391;51.306;22.680;2022-08-01T08:16:39;6.10;;;3.00;;
70049;SDS011;57391;51.306;22.680;2022-08-01T08:19:06;5.00;;;3.20;;
70049;SDS011;57391;51.306;22.680;2022-08-01T08:21:33;5.50;;;3.20;;
70049;SDS011;57391;51.306;22.680;2022-08-01T08:24:00;5.10;;;3.10;;
70049;SDS011;57391;51.306;22.680;2022-08-01T08:26:50;4.90;;;2.90;;
70049;SDS011;57391;51.306;22.680;2022-08-01T08:29:21;6.10;;;3.10;;
70049;SDS011;57391;51.306;22.680;2022-08-01T08:31:49;4.30;;;2.90;;
70049;SDS011;57391;51.306;22.680;2022-08-01T08:34:17;4.30;;;2.80;;
70049;SDS011;57391;51.306;22.680;2022-08-01T08:36:45;5.70;;;2.90;;
70049;SDS011;57391;51.306;22.680;2022-08-01T08:39:12;5.60;;;2.70;;
70049;SDS011;57391;51.306;22.680;2022-08-01T08:41:40;3.80;;;2.80;;
70049;SDS011;57391;51.306;22.680;2022-08-01T08:44:09;5.10;;;2.80;;
70049;SDS011;57391;51.306;22.680;2022-08-01T08:46:45;4.60;;;3.00;;
70049;SDS011;57391;51.306;22.680;2022-08-01T08:49:22;4.80;;;2.70;;
70049;SDS011;57391;51.306;22.680;2022-08-01T08:51:53;4.50;;;2.40;;
70049;SDS011;57391;51.306;22.680;2022-08-01T08:54:25;4.70;;;2.40;;
70049;SDS011;57391;51.306;22.680;2022-08-01T08:56:54;4.30;;;2.50;;
70049;SDS011;57391;51.306;22.680;2022-08-01T08:59:22;4.40;;;2.60;;
70049;SDS011;57391;51.306;22.680;2022-08-01T09:01:53;3.90;;;2.60;;
70049;SDS011;57391;51.306;22.680;2022-08-01T09:04:21;3.50;;;2.30;;
70049;SDS011;57391;51.306;22.680;2022-08-01T09:06:49;3.40;;;2.30;;
70049;SDS011;57391;51.306;22.680;2022-08-01T09:09:17;3.50;;;2.40;;
70049;SDS011;57391;51.306;22.680;2022-08-01T09:11:44;4.10;;;2.30;;
70049;SDS011;57391;51.306;22.680;2022-08-01T09:14:17;3.00;;;2.00;;
70049;SDS011;57391;51.306;22.680;2022-08-01T09:19:38;3.80;;;2.40;;
70049;SDS011;57391;51.306;22.680;2022-08-01T09:22:18;3.70;;;2.10;;
70049;SDS011;57391;51.306;22.680;2022-08-01T09:27:31;3.80;;;2.00;;
70049;SDS011;57391;51.306;22.680;2022-08-01T09:30:20;2.60;;;1.80;;
70049;SDS011;57391;51.306;22.680;2022-08-01T09:32:59;3.30;;;1.80;;
70049;SDS011;57391;51.306;22.680;2022-08-01T09:35:30;3.40;;;2.20;;
70049;SDS011;57391;51.306;22.680;2022-08-01T09:40:59;4.60;;;1.90;;
70049;SDS011;57391;51.306;22.680;2022-08-01T09:43:29;2.50;;;1.80;;
70049;SDS011;57391;51.306;22.680;2022-08-01T09:45:58;5.40;;;1.80;;
70049;SDS011;57391;51.306;22.680;2022-08-01T09:48:31;3.60;;;1.60;;
70049;SDS011;57391;51.306;22.680;2022-08-01T09:51:00;3.70;;;1.90;;
70049;SDS011;57391;51.306;22.680;2022-08-01T09:53:40;3.00;;;1.80;;
70049;SDS011;57391;51.306;22.680;2022-08-01T09:56:12;5.00;;;2.00;;
70049;SDS011;57391;51.306;22.680;2022-08-01T09:58:57;4.00;;;2.10;;
70049;SDS011;57391;51.306;22.680;2022-08-01T10:01:26;12.40;;;2.10;;
70049;SDS011;57391;51.306;22.680;2022-08-01T10:06:44;3.50;;;1.90;;
70049;SDS011;57391;51.306;22.680;2022-08-01T10:09:29;5.10;;;2.20;;
70049;SDS011;57391;51.306;22.680;2022-08-01T10:12:01;3.40;;;1.80;;
70049;SDS011;57391;51.306;22.680;2022-08-01T10:14:31;3.80;;;1.90;;
70049;SDS011;57391;51.306;22.680;2022-08-01T10:17:00;3.10;;;1.90;;
70049;SDS011;57391;51.306;22.680;2022-08-01T10:19:29;4.80;;;1.60;;
70049;SDS011;57391;51.306;22.680;2022-08-01T10:21:57;3.10;;;1.80;;
70049;SDS011;57391;51.306;22.680;2022-08-01T10:24:28;4.20;;;1.80;;
70049;SDS011;57391;51.306;22.680;2022-08-01T10:26:58;5.30;;;1.70;;
70049;SDS011;57391;51.306;22.680;2022-08-01T10:32:12;3.50;;;1.90;;
70049;SDS011;57391;51.306;22.680;2022-08-01T10:34:40;3.50;;;1.80;;
70049;SDS011;57391;51.306;22.680;2022-08-01T10:37:07;3.80;;;1.80;;
70049;SDS011;57391;51.306;22.680;2022-08-01T10:39:35;3.10;;;1.90;;
70049;SDS011;57391;51.306;22.680;2022-08-01T10:42:05;3.40;;;1.80;;
70049;SDS011;57391;51.306;22.680;2022-08-01T10:44:33;3.30;;;1.80;;
70049;SDS011;57391;51.306;22.680;2022-08-01T10:47:09;3.00;;;1.90;;
70049;SDS011;57391;51.306;22.680;2022-08-01T10:49:47;3.40;;;1.70;;
70049;SDS011;57391;51.306;22.680;2022-08-01T10:52:18;3.20;;;1.90;;
70049;SDS011;57391;51.306;22.680;2022-08-01T10:54:46;4.10;;;1.90;;
70049;SDS011;57391;51.306;22.680;2022-08-01T10:57:13;3.00;;;1.60;;
70049;SDS011;57391;51.306;22.680;2022-08-01T10:59:49;4.00;;;1.70;;
70049;SDS011;57391;51.306;22.680;2022-08-01T11:02:32;2.40;;;1.60;;
70049;SDS011;57391;51.306;22.680;2022-08-01T11:07:53;3.00;;;1.70;;
70049;SDS011;57391;51.306;22.680;2022-08-01T11:10:39;4.30;;;1.80;;
70049;SDS011;57391;51.306;22.680;2022-08-01T11:13:11;3.90;;;1.60;;
70049;SDS011;57391;51.306;22.680;2022-08-01T11:15:39;2.50;;;1.60;;
70049;SDS011;57391;51.306;22.680;2022-08-01T11:21:01;3.20;;;1.40;;
70049;SDS011;57391;51.306;22.680;2022-08-01T11:23:30;4.30;;;1.50;;
70049;SDS011;57391;51.306;22.680;2022-08-01T11:26:21;3.40;;;1.60;;
70049;SDS011;57391;51.306;22.680;2022-08-01T11:29:15;3.60;;;1.50;;
70049;SDS011;57391;51.306;22.680;2022-08-01T11:31:44;2.20;;;1.30;;
70049;SDS011;57391;51.306;22.680;2022-08-01T11:34:11;3.70;;;1.50;;
70049;SDS011;57391;51.306;22.680;2022-08-01T11:36:39;2.40;;;1.50;;
70049;SDS011;57391;51.306;22.680;2022-08-01T11:41:34;2.50;;;1.60;;
70049;SDS011;57391;51.306;22.680;2022-08-01T11:44:17;2.70;;;1.50;;
70049;SDS011;57391;51.306;22.680;2022-08-01T11:52:11;4.20;;;1.60;;
70049;SDS011;57391;51.306;22.680;2022-08-01T11:54:57;3.30;;;1.50;;
70049;SDS011;57391;51.306;22.680;2022-08-01T11:57:33;9.80;;;1.90;;
70049;SDS011;57391;51.306;22.680;2022-08-01T12:00:13;2.60;;;1.60;;
70049;SDS011;57391;51.306;22.680;2022-08-01T12:02:45;3.80;;;1.70;;
70049;SDS011;57391;51.306;22.680;2022-08-01T12:05:16;2.90;;;1.60;;
70049;SDS011;57391;51.306;22.680;2022-08-01T12:07:50;3.10;;;1.30;;
70049;SDS011;57391;51.306;22.680;2022-08-01T12:10:21;2.60;;;1.60;;
70049;SDS011;57391;51.306;22.680;2022-08-01T12:12:55;3.70;;;1.60;;
70049;SDS011;57391;51.306;22.680;2022-08-01T12:15:30;3.10;;;1.30;;
70049;SDS011;57391;51.306;22.680;2022-08-01T12:18:04;3.80;;;1.40;;
70049;SDS011;57391;51.306;22.680;2022-08-01T12:20:38;2.00;;;1.20;;
70049;SDS011;57391;51.306;22.680;2022-08-01T12:23:09;3.00;;;1.30;;
70049;SDS011;57391;51.306;22.680;2022-08-01T12:25:38;2.70;;;1.50;;
70049;SDS011;57391;51.306;22.680;2022-08-01T12:28:08;1.90;;;1.30;;
70049;SDS011;57391;51.306;22.680;2022-08-01T12:30:37;4.70;;;1.60;;
70049;SDS011;57391;51.306;22.680;2022-08-01T12:33:07;2.70;;;1.60;;
70049;SDS011;57391;51.306;22.680;2022-08-01T12:35:38;2.00;;;1.30;;
70049;SDS011;57391;51.306;22.680;2022-08-01T12:38:21;2.60;;;1.40;;
70049;SDS011;57391;51.306;22.680;2022-08-01T12:40:49;3.50;;;1.40;;
70049;SDS011;57391;51.306;22.680;2022-08-01T12:43:19;2.50;;;1.40;;
70049;SDS011;57391;51.306;22.680;2022-08-01T12:45:49;4.20;;;1.30;;
70049;SDS011;57391;51.306;22.680;2022-08-01T12:48:18;2.80;;;1.20;;
70049;SDS011;57391;51.306;22.680;2022-08-01T12:50:48;3.20;;;1.40;;
70049;SDS011;57391;51.306;22.680;2022-08-01T12:53:16;2.90;;;1.30;;
70049;SDS011;57391;51.306;22.680;2022-08-01T12:55:51;3.80;;;1.30;;
70049;SDS011;57391;51.306;22.680;2022-08-01T12:58:21;4.50;;;1.30;;
70049;SDS011;57391;51.306;22.680;2022-08-01T13:01:01;4.50;;;1.40;;
70049;SDS011;57391;51.306;22.680;2022-08-01T13:03:30;3.90;;;1.50;;
70049;SDS011;57391;51.306;22.680;2022-08-01T13:06:00;2.60;;;1.40;;
70049;SDS011;57391;51.306;22.680;2022-08-01T13:08:36;3.10;;;1.60;;
70049;SDS011;57391;51.306;22.680;2022-08-01T13:11:12;2.90;;;1.20;;
70049;SDS011;57391;51.306;22.680;2022-08-01T13:13:46;2.40;;;1.30;;
70049;SDS011;57391;51.306;22.680;2022-08-01T13:16:19;2.60;;;1.50;;
70049;SDS011;57391;51.306;22.680;2022-08-01T13:18:50;3.00;;;1.40;;
70049;SDS011;57391;51.306;22.680;2022-08-01T13:21:29;2.30;;;1.30;;
70049;SDS011;57391;51.306;22.680;2022-08-01T13:24:11;2.60;;;1.20;;
70049;SDS011;57391;51.306;22.680;2022-08-01T13:26:40;2.50;;;1.40;;
70049;SDS011;57391;51.306;22.680;2022-08-01T13:29:09;4.60;;;1.50;;
70049;SDS011;57391;51.306;22.680;2022-08-01T13:31:39;6.50;;;1.30;;
70049;SDS011;57391;51.306;22.680;2022-08-01T13:34:07;3.70;;;1.50;;
70049;SDS011;57391;51.306;22.680;2022-08-01T13:36:35;4.00;;;1.30;;
70049;SDS011;57391;51.306;22.680;2022-08-01T13:39:04;2.20;;;1.20;;
70049;SDS011;57391;51.306;22.680;2022-08-01T13:41:51;2.70;;;1.60;;
70049;SDS011;57391;51.306;22.680;2022-08-01T13:44:19;2.40;;;1.50;;
70049;SDS011;57391;51.306;22.680;2022-08-01T13:46:46;2.00;;;1.10;;
70049;SDS011;57391;51.306;22.680;2022-08-01T13:49:17;3.40;;;1.40;;
70049;SDS011;57391;51.306;22.680;2022-08-01T13:51:45;2.00;;;1.30;;
70049;SDS011;57391;51.306;22.680;2022-08-01T13:54:13;2.50;;;1.30;;
70049;SDS011;57391;51.306;22.680;2022-08-01T13:56:40;2.80;;;1.20;;
70049;SDS011;57391;51.306;22.680;2022-08-01T13:59:08;4.90;;;1.50;;
70049;SDS011;57391;51.306;22.680;2022-08-01T14:01:35;4.20;;;1.10;;
70049;SDS011;57391;51.306;22.680;2022-08-01T14:04:03;3.00;;;1.60;;
70049;SDS011;57391;51.306;22.680;2022-08-01T14:06:31;4.70;;;1.40;;
70049;SDS011;57391;51.306;22.680;2022-08-01T14:08:58;2.60;;;1.10;;
70049;SDS011;57391;51.306;22.680;2022-08-01T14:11:26;2.80;;;1.20;;
70049;SDS011;57391;51.306;22.680;2022-08-01T14:13:53;3.40;;;1.40;;
70049;SDS011;57391;51.306;22.680;2022-08-01T14:16:20;2.80;;;1.30;;
70049;SDS011;57391;51.306;22.680;2022-08-01T14:18:47;2.70;;;1.60;;
70049;SDS011;57391;51.306;22.680;2022-08-01T14:21:14;3.00;;;1.40;;
70049;SDS011;57391;51.306;22.680;2022-08-01T14:23:42;3.90;;;1.40;;
70049;SDS011;57391;51.306;22.680;2022-08-01T14:26:09;3.20;;;1.60;;
70049;SDS011;57391;51.306;22.680;2022-08-01T14:28:37;3.10;;;1.50;;
70049;SDS011;57391;51.306;22.680;2022-08-01T14:31:05;5.90;;;1.50;;
70049;SDS011;57391;51.306;22.680;2022-08-01T14:33:33;3.00;;;1.70;;
70049;SDS011;57391;51.306;22.680;2022-08-01T14:36:00;4.50;;;1.70;;
70049;SDS011;57391;51.306;22.680;2022-08-01T14:38:30;3.30;;;1.40;;
70049;SDS011;57391;51.306;22.680;2022-08-01T14:40:58;4.10;;;1.50;;
70049;SDS011;57391;51.306;22.680;2022-08-01T14:43:26;2.60;;;1.20;;
70049;SDS011;57391;51.306;22.680;2022-08-01T14:45:53;3.30;;;1.30;;
70049;SDS011;57391;51.306;22.680;2022-08-01T14:48:21;3.40;;;1.50;;
70049;SDS011;57391;51.306;22.680;2022-08-01T14:50:48;3.60;;;1.40;;
70049;SDS011;57391;51.306;22.680;2022-08-01T14:53:15;4.40;;;1.90;;
70049;SDS011;57391;51.306;22.680;2022-08-01T14:55:42;2.70;;;1.30;;
70049;SDS011;57391;51.306;22.680;2022-08-01T14:58:10;4.40;;;1.70;;
70049;SDS011;57391;51.306;22.680;2022-08-01T15:00:37;2.70;;;1.50;;
70049;SDS011;57391;51.306;22.680;2022-08-01T15:03:04;2.50;;;1.40;;
70049;SDS011;57391;51.306;22.680;2022-08-01T15:05:31;3.00;;;1.40;;
70049;SDS011;57391;51.306;22.680;2022-08-01T15:07:59;2.90;;;1.40;;
70049;SDS011;57391;51.306;22.680;2022-08-01T15:10:26;2.60;;;1.40;;
70049;SDS011;57391;51.306;22.680;2022-08-01T15:12:53;3.90;;;1.70;;
70049;SDS011;57391;51.306;22.680;2022-08-01T15:15:23;5.00;;;1.50;;
70049;SDS011;57391;51.306;22.680;2022-08-01T15:17:59;3.30;;;1.70;;
70049;SDS011;57391;51.306;22.680;2022-08-01T15:20:26;3.00;;;1.60;;
70049;SDS011;57391;51.306;22.680;2022-08-01T15:22:56;3.40;;;1.50;;
70049;SDS011;57391;51.306;22.680;2022-08-01T15:25:23;6.80;;;1.60;;
70049;SDS011;57391;51.306;22.680;2022-08-01T15:27:50;3.40;;;1.60;;
70049;SDS011;57391;51.306;22.680;2022-08-01T15:30:18;2.90;;;1.50;;
70049;SDS011;57391;51.306;22.680;2022-08-01T15:32:45;2.50;;;1.40;;
70049;SDS011;57391;51.306;22.680;2022-08-01T15:35:12;4.50;;;1.60;;
70049;SDS011;57391;51.306;22.680;2022-08-01T15:37:39;3.90;;;1.50;;
70049;SDS011;57391;51.306;22.680;2022-08-01T15:40:08;3.90;;;1.40;;
70049;SDS011;57391;51.306;22.680;2022-08-01T15:42:36;4.50;;;1.50;;
70049;SDS011;57391;51.306;22.680;2022-08-01T15:45:04;5.20;;;1.60;;
70049;SDS011;57391;51.306;22.680;2022-08-01T15:47:32;3.60;;;1.70;;